Kezdőlap
METAR-TAF:

METAR-TAF

Repülőterek :

Bahrein, Bahrein

Bahreini nemzetközi repülőtér

földrajzi szélesség: 26-16N, földrajzi hosszúság: 050-39E, magasság: 2 m

Jelenlegi meteorológiai megfigyelések

A jelentés 25 perccel ezelõtt készült, 07:30 UTC
Dél-délkeleti szél 8 kt, délkeleti és dél-délnyugati között változik
Hőmérséklet 20°C
Páratartalom 56%
Légköri nyomás 1016 hPa
Látótávolság: 7000 m
Derült ég

METAR: OBBI 240730Z 16008KT 130V200 7000 SKC 20/11 Q1016 NOSIG

Idő: 10:55 (07:55 UTC)

Előrejelzés

A jelentés 2 órával és 55 perccel ezelõtt készült, 05:00 UTC
Az előrejelzés 24-én 06 óra UTC és 25-én 12 óra UTC között érvényes
Dél-délkeleti szél 8 kt
Látótávolság: 7000 m
24-én 06 óra UTC és 24-én 10 óra UTC között ideiglenes
Látótávolság: 4000 m
Száraz légköri homály

TAF: OBBI 240500Z 2406/2512 16008KT 7000 NSC TEMPO 2406/2410 4000 HZ

Meteorológiai megfigyelések és előrejelzések több, mint 4000 repülőtéren (METAR és TAF jelentéseket).

A térképen piros és sárga pontok jelzik az elérhető meteorológiai állomásokat.

Mozgassa az egeret a pont fölött, hogy megjelenjen az állomás neve.

Azután kattintson az időjárási megfigyelések és előrejelzések megtekintéséhez.

A térkép megváltoztatása: kattintson a fekete keresztel jelölt zöld gombra ráközelítéshez, a vonallal jelölt zöld gombra távolításhoz, vagy a zöld nyilakra a szomszédos térképek eléréséhez.


METAR-TAF: